createdAt,value
2018-09-04T00:01:57.019Z,75.49
2018-09-04T00:04:26.382Z,75.20
2018-09-04T00:06:55.476Z,75.20
2018-09-04T00:09:24.434Z,75.11
2018-09-04T00:11:53.440Z,75.32
2018-09-04T00:14:22.856Z,75.22
2018-09-04T00:16:51.820Z,74.73
2018-09-04T00:19:20.760Z,75.01
2018-09-04T00:21:49.689Z,74.99
2018-09-04T00:24:18.817Z,75.50
2018-09-04T00:26:47.865Z,74.95
2018-09-04T00:29:16.900Z,74.99
2018-09-04T00:31:46.274Z,74.70
2018-09-04T00:34:15.415Z,74.42
2018-09-04T00:36:44.655Z,74.66
2018-09-04T00:39:13.662Z,74.48
2018-09-04T00:41:42.604Z,74.88
2018-09-04T00:44:11.454Z,74.60
2018-09-04T00:46:40.407Z,75.02
2018-09-04T00:49:09.357Z,74.95
2018-09-04T00:51:38.640Z,75.74
2018-09-04T00:54:07.634Z,75.37
2018-09-04T00:56:36.651Z,75.64
2018-09-04T00:59:06.550Z,75.62
2018-09-04T01:01:35.473Z,75.93
2018-09-04T01:04:04.631Z,76.22
2018-09-04T01:06:33.642Z,75.85
2018-09-04T01:09:02.980Z,76.40
2018-09-04T01:11:32.023Z,76.47
2018-09-04T01:14:01.889Z,75.97
2018-09-04T01:16:30.929Z,76.04
2018-09-04T01:18:59.985Z,76.43
2018-09-04T01:21:29.069Z,76.39
2018-09-04T01:23:57.967Z,76.47
2018-09-04T01:26:27.256Z,76.79
2018-09-04T01:28:56.381Z,76.72
2018-09-04T01:31:25.461Z,76.80
2018-09-04T01:33:54.906Z,76.58
2018-09-04T01:36:23.977Z,76.54
2018-09-04T01:38:53.045Z,76.52
2018-09-04T01:41:22.013Z,76.48
2018-09-04T01:43:51.243Z,76.92
2018-09-04T01:46:20.214Z,76.70
2018-09-04T01:48:50.770Z,76.58
2018-09-04T01:51:19.682Z,76.90
2018-09-04T01:53:48.855Z,76.44
2018-09-04T01:56:17.944Z,76.54
2018-09-04T01:58:46.917Z,76.84
2018-09-04T02:01:15.865Z,76.91
2018-09-04T02:03:44.851Z,76.62
2018-09-04T02:06:13.692Z,76.71
2018-09-04T02:08:42.685Z,76.99
2018-09-04T02:11:11.822Z,77.02
2018-09-04T02:13:40.739Z,76.82
2018-09-04T02:16:09.920Z,76.77
2018-09-04T02:18:38.897Z,76.84
2018-09-04T02:21:07.887Z,77.03
2018-09-04T02:23:36.780Z,77.43
2018-09-04T02:26:06.144Z,77.39
2018-09-04T02:28:35.109Z,77.13
2018-09-04T02:31:04.396Z,76.89
2018-09-04T02:33:33.286Z,77.52
2018-09-04T02:36:02.592Z,77.14
2018-09-04T02:38:31.563Z,77.15
2018-09-04T02:41:00.473Z,77.78
2018-09-04T02:43:29.441Z,77.55
2018-09-04T02:45:58.456Z,76.87
2018-09-04T02:48:27.350Z,77.62
2018-09-04T02:50:56.422Z,77.02
2018-09-04T02:53:25.413Z,76.78
2018-09-04T02:55:54.292Z,76.92
2018-09-04T02:58:23.713Z,77.44
2018-09-04T03:00:52.657Z,77.09
2018-09-04T03:03:21.915Z,77.49
2018-09-04T03:05:50.875Z,76.68
2018-09-04T03:08:19.716Z,77.59
2018-09-04T03:10:48.872Z,77.23
2018-09-04T03:13:18.043Z,77.32
2018-09-04T03:15:47.062Z,77.81
2018-09-04T03:18:16.392Z,77.33
2018-09-04T03:20:45.609Z,77.19
2018-09-04T03:23:14.663Z,77.36
2018-09-04T03:25:43.464Z,77.82
2018-09-04T03:28:12.377Z,77.63
2018-09-04T03:30:41.314Z,77.58
2018-09-04T03:33:10.309Z,77.56
2018-09-04T03:35:39.179Z,77.62
2018-09-04T03:38:08.839Z,77.79
2018-09-04T03:40:37.762Z,77.78
2018-09-04T03:43:07.461Z,77.65
2018-09-04T03:45:36.487Z,77.90
2018-09-04T03:48:06.144Z,77.51
2018-09-04T03:50:35.037Z,77.73
2018-09-04T03:53:04.002Z,77.70
2018-09-04T03:55:32.846Z,77.81
2018-09-04T03:58:01.825Z,77.60
2018-09-04T04:00:30.850Z,77.17
2018-09-04T04:02:59.854Z,76.79
2018-09-04T04:05:28.767Z,76.50
2018-09-04T04:07:57.632Z,77.09
2018-09-04T04:10:26.613Z,76.83
2018-09-04T04:12:55.626Z,76.85
2018-09-04T04:15:24.622Z,76.42
2018-09-04T04:17:53.484Z,76.84
2018-09-04T04:20:23.403Z,77.00
2018-09-04T04:22:52.717Z,76.68
2018-09-04T04:25:22.016Z,76.83
2018-09-04T04:27:51.116Z,76.56
2018-09-04T04:33:08.007Z,76.86
2018-09-04T04:35:36.943Z,76.84
2018-09-04T04:38:06.321Z,76.75
2018-09-04T04:40:35.944Z,76.40
2018-09-04T04:43:05.068Z,76.33
2018-09-04T04:45:34.288Z,76.77
2018-09-04T04:48:03.882Z,76.52
2018-09-04T04:50:32.773Z,76.85
2018-09-04T04:53:01.717Z,76.65
2018-09-04T04:55:30.829Z,76.68
2018-09-04T04:57:59.915Z,76.45
2018-09-04T05:00:29.029Z,76.45
2018-09-04T05:02:57.911Z,76.75
2018-09-04T05:05:26.931Z,76.81
2018-09-04T05:07:55.841Z,76.30
2018-09-04T05:10:24.984Z,76.46
2018-09-04T05:12:54.001Z,76.36
2018-09-04T05:15:23.030Z,76.66
2018-09-04T05:17:52.181Z,76.76
2018-09-04T05:20:23.500Z,76.35
2018-09-04T05:22:52.716Z,76.79
2018-09-04T05:25:21.856Z,76.66
2018-09-04T05:27:51.403Z,76.26
2018-09-04T05:30:20.345Z,76.17
2018-09-04T05:32:54.160Z,76.27
2018-09-04T05:35:23.254Z,76.26
2018-09-04T05:37:52.268Z,76.43
2018-09-04T05:40:21.165Z,76.08
2018-09-04T05:42:54.071Z,76.72
2018-09-04T05:45:24.683Z,76.30
2018-09-04T05:47:58.688Z,76.49
2018-09-04T05:50:27.689Z,76.57
2018-09-04T05:52:56.654Z,76.06
2018-09-04T05:55:25.670Z,75.95
2018-09-04T05:57:54.672Z,76.37
2018-09-04T06:00:29.174Z,75.86
2018-09-04T06:02:58.144Z,75.74
2018-09-04T06:05:27.058Z,75.52
2018-09-04T06:07:56.014Z,75.44
2018-09-04T06:10:25.020Z,75.50
2018-09-04T06:12:54.156Z,75.14
2018-09-04T06:15:23.088Z,75.39
2018-09-04T06:17:59.967Z,75.58
2018-09-04T06:20:29.010Z,76.04
2018-09-04T06:22:58.410Z,75.41
2018-09-04T06:25:27.366Z,75.60
2018-09-04T06:27:56.542Z,75.52
2018-09-04T06:30:25.715Z,74.87
2018-09-04T06:32:54.599Z,75.49
2018-09-04T06:35:23.464Z,75.18
2018-09-04T06:37:52.315Z,75.14
2018-09-04T06:40:21.286Z,74.97
2018-09-04T06:42:50.421Z,74.75
2018-09-04T06:45:20.337Z,74.72
2018-09-04T06:47:49.524Z,74.76
2018-09-04T06:50:18.659Z,74.40
2018-09-04T06:52:47.633Z,74.71
2018-09-04T06:55:16.586Z,74.38
2018-09-04T06:57:45.457Z,74.32
2018-09-04T07:00:14.979Z,74.16
2018-09-04T07:02:44.107Z,74.75
2018-09-04T07:05:13.184Z,74.46
2018-09-04T07:07:42.563Z,74.75
2018-09-04T07:10:11.491Z,74.36
2018-09-04T07:12:40.556Z,74.05
2018-09-04T07:15:09.560Z,74.60
2018-09-04T07:17:38.514Z,74.19
2018-09-04T07:20:07.748Z,74.17
2018-09-04T07:22:36.734Z,74.50
2018-09-04T07:25:06.129Z,74.49
2018-09-04T07:27:35.106Z,73.76
2018-09-04T07:30:04.242Z,73.51
2018-09-04T07:32:33.175Z,73.38
2018-09-04T07:35:02.160Z,73.82
2018-09-04T07:37:31.405Z,73.53
2018-09-04T07:40:00.321Z,73.70
2018-09-04T07:42:29.320Z,72.91
2018-09-04T07:44:58.184Z,72.77
2018-09-04T07:47:27.303Z,72.60
2018-09-04T07:49:56.256Z,72.62
2018-09-04T07:52:25.383Z,72.81
2018-09-04T07:54:54.269Z,72.52
2018-09-04T07:57:23.193Z,72.31
2018-09-04T07:59:52.531Z,72.31
2018-09-04T08:02:21.524Z,71.80
2018-09-04T08:04:50.666Z,72.31
2018-09-04T08:07:19.550Z,71.96
2018-09-04T08:09:48.698Z,72.21
2018-09-04T08:12:17.672Z,71.94
2018-09-04T08:14:46.762Z,71.00
2018-09-04T08:17:15.781Z,71.28
2018-09-04T08:19:44.619Z,70.66
2018-09-04T08:22:13.517Z,70.90
2018-09-04T08:24:42.398Z,70.18
2018-09-04T08:27:11.621Z,70.27
2018-09-04T08:29:40.534Z,68.83
2018-09-04T08:32:09.432Z,66.76
2018-09-04T08:34:38.370Z,66.38
2018-09-04T08:37:07.574Z,65.15
2018-09-04T08:39:36.461Z,66.94
2018-09-04T08:42:05.588Z,67.22
2018-09-04T08:44:34.650Z,67.69
2018-09-04T08:47:05.004Z,67.22
2018-09-04T08:49:34.273Z,67.41
2018-09-04T08:52:03.172Z,67.59
2018-09-04T08:54:32.122Z,67.11
2018-09-04T08:57:01.121Z,66.63
2018-09-04T08:59:30.350Z,66.99
2018-09-04T09:01:59.567Z,67.14
2018-09-04T09:04:28.448Z,67.64
2018-09-04T09:06:57.440Z,67.79
2018-09-04T09:09:26.320Z,67.94
2018-09-04T09:11:55.154Z,68.21
2018-09-04T09:14:24.064Z,67.51
2018-09-04T09:16:52.897Z,67.71
2018-09-04T09:19:22.035Z,68.26
2018-09-04T09:21:51.185Z,68.10
2018-09-04T09:24:20.116Z,68.23
2018-09-04T09:26:48.975Z,67.84
2018-09-04T09:29:18.403Z,68.27
2018-09-04T09:31:47.474Z,68.31
2018-09-04T09:34:16.366Z,68.71
2018-09-04T09:36:45.545Z,68.33
2018-09-04T09:39:14.433Z,68.75
2018-09-04T09:41:43.358Z,68.39
2018-09-04T09:44:12.233Z,68.54
2018-09-04T09:46:41.053Z,68.27
2018-09-04T09:49:10.205Z,68.41
2018-09-04T09:51:39.510Z,68.57
2018-09-04T09:54:08.480Z,68.22
2018-09-04T09:56:37.385Z,68.32
2018-09-04T09:59:06.365Z,68.04
2018-09-04T10:01:40.506Z,67.96
2018-09-04T10:04:09.851Z,68.43
2018-09-04T10:06:38.807Z,68.21
2018-09-04T10:09:08.801Z,68.28
2018-09-04T10:11:37.882Z,67.71
2018-09-04T10:14:06.974Z,68.01
2018-09-04T10:16:35.925Z,67.78
2018-09-04T10:19:04.965Z,67.37
2018-09-04T10:21:33.869Z,66.84
2018-09-04T10:24:03.195Z,67.08
2018-09-04T10:26:32.181Z,66.96
2018-09-04T10:29:01.017Z,66.69
2018-09-04T10:31:30.056Z,66.79
2018-09-04T10:33:59.037Z,66.66
2018-09-04T10:36:28.069Z,66.63
2018-09-04T10:40:05.967Z,66.87
2018-09-04T10:42:34.871Z,66.65
2018-09-04T10:45:04.025Z,66.77
2018-09-04T10:47:32.929Z,67.03
2018-09-04T10:50:01.876Z,67.72
2018-09-04T10:52:31.007Z,67.87
2018-09-04T10:55:00.392Z,67.79
2018-09-04T10:57:29.336Z,67.83
2018-09-04T10:59:58.358Z,67.98
2018-09-04T11:02:27.543Z,67.43
2018-09-04T11:04:56.462Z,67.37
2018-09-04T11:07:25.412Z,67.28
2018-09-04T11:09:54.539Z,67.69
2018-09-04T11:12:23.847Z,68.04
2018-09-04T11:14:52.875Z,67.65
2018-09-04T11:17:22.005Z,67.55
2018-09-04T11:19:51.162Z,67.54
2018-09-04T11:22:20.271Z,67.52
2018-09-04T11:24:49.248Z,67.14
2018-09-04T11:27:18.300Z,67.22
2018-09-04T11:29:47.429Z,67.29
2018-09-04T11:32:16.351Z,67.61
2018-09-04T11:34:45.303Z,67.19
2018-09-04T11:37:14.285Z,67.50
2018-09-04T11:39:43.466Z,66.88
2018-09-04T11:42:13.449Z,67.12
2018-09-04T11:44:43.458Z,67.77
2018-09-04T11:47:13.154Z,67.20
2018-09-04T11:49:42.710Z,67.70
2018-09-04T11:52:11.874Z,67.79
2018-09-04T11:54:41.048Z,67.89
2018-09-04T11:57:10.075Z,68.11
2018-09-04T11:59:40.774Z,67.73
2018-09-04T12:02:14.638Z,68.21
2018-09-04T12:04:43.545Z,67.95
2018-09-04T12:07:12.800Z,68.26
2018-09-04T12:09:41.677Z,67.99
2018-09-04T12:12:14.695Z,68.00
2018-09-04T12:14:43.646Z,68.17
2018-09-04T12:17:12.537Z,67.99
2018-09-04T12:19:46.700Z,67.88
2018-09-04T12:22:15.755Z,67.49
2018-09-04T12:24:45.132Z,66.89
2018-09-04T12:27:14.069Z,66.82
2018-09-04T12:29:42.947Z,67.21
2018-09-04T12:32:11.984Z,66.97
2018-09-04T12:34:40.940Z,67.60
2018-09-04T12:37:10.142Z,67.29
2018-09-04T12:39:43.248Z,67.29
2018-09-04T12:42:12.597Z,67.25
2018-09-04T12:44:41.554Z,67.72
2018-09-04T12:47:10.547Z,66.85
2018-09-04T12:49:39.460Z,67.21
2018-09-04T12:52:08.846Z,66.92
2018-09-04T12:54:37.779Z,66.87
2018-09-04T12:57:06.788Z,66.98
2018-09-04T12:59:35.692Z,66.56
2018-09-04T13:02:04.933Z,66.65
2018-09-04T13:04:33.849Z,65.66
2018-09-04T13:07:02.776Z,65.76
2018-09-04T13:09:31.753Z,65.78
2018-09-04T13:12:00.738Z,65.12
2018-09-04T13:14:29.763Z,64.09
2018-09-04T13:17:02.730Z,63.79
2018-09-04T13:19:31.903Z,62.95
2018-09-04T13:22:02.183Z,62.90
2018-09-04T13:24:31.338Z,62.57
2018-09-04T13:27:00.283Z,61.62
2018-09-04T13:29:29.607Z,61.73
2018-09-04T13:31:59.231Z,62.10
2018-09-04T13:34:28.414Z,61.88
2018-09-04T13:36:57.404Z,61.91
2018-09-04T13:39:26.502Z,62.12
2018-09-04T13:41:55.816Z,62.18
2018-09-04T13:44:25.232Z,61.92
2018-09-04T13:46:54.243Z,61.90
2018-09-04T13:49:23.427Z,61.43
2018-09-04T13:51:52.470Z,61.21
2018-09-04T13:54:21.676Z,61.17
2018-09-04T13:56:50.667Z,60.82
2018-09-04T13:59:19.793Z,59.98
2018-09-04T14:01:48.999Z,60.17
2018-09-04T14:04:17.922Z,59.68
2018-09-04T14:06:46.778Z,59.57
2018-09-04T14:09:15.794Z,59.30
2018-09-04T14:11:44.789Z,59.19
2018-09-04T14:14:13.775Z,58.84
2018-09-04T14:16:43.581Z,59.01
2018-09-04T14:19:11.876Z,57.60
2018-09-04T14:21:40.874Z,57.68
2018-09-04T14:24:09.824Z,57.84
2018-09-04T14:26:38.954Z,58.18
2018-09-04T14:29:08.017Z,57.92
2018-09-04T14:31:37.041Z,58.37
2018-09-04T14:34:05.902Z,58.18
2018-09-04T14:36:34.919Z,57.86
2018-09-04T14:39:05.189Z,57.63
2018-09-04T14:41:34.070Z,57.41
2018-09-04T14:44:02.934Z,57.99
2018-09-04T14:46:32.001Z,56.84
2018-09-04T14:49:00.909Z,57.46
2018-09-04T14:51:30.917Z,57.33
2018-09-04T14:53:59.860Z,57.14
2018-09-04T14:56:29.005Z,57.15
2018-09-04T14:58:58.454Z,56.48
2018-09-04T15:01:27.435Z,55.71
2018-09-04T15:03:56.389Z,56.45
2018-09-04T15:06:25.437Z,56.24
2018-09-04T15:08:54.567Z,57.31
2018-09-04T15:11:23.540Z,56.42
2018-09-04T15:13:52.555Z,56.35
2018-09-04T15:16:21.459Z,56.19
2018-09-04T15:18:50.528Z,57.53
2018-09-04T15:21:19.831Z,58.70
2018-09-04T15:23:48.954Z,59.29
2018-09-04T15:26:17.995Z,59.48
2018-09-04T15:28:47.014Z,59.93
2018-09-04T15:31:16.308Z,60.36
2018-09-04T15:33:45.459Z,60.49
2018-09-04T15:36:14.460Z,60.02
2018-09-04T15:38:43.397Z,60.28
2018-09-04T15:41:12.514Z,60.67
2018-09-04T15:43:41.339Z,60.34
2018-09-04T15:46:11.283Z,59.73
2018-09-04T15:48:40.374Z,59.71
2018-09-04T15:51:09.182Z,59.90
2018-09-04T15:53:38.143Z,59.74
2018-09-04T15:56:07.068Z,59.89
2018-09-04T15:58:36.317Z,59.77
2018-09-04T16:01:06.536Z,59.74
2018-09-04T16:03:35.512Z,60.18
2018-09-04T16:06:04.497Z,60.21
2018-09-04T16:08:33.643Z,59.96
2018-09-04T16:11:03.144Z,60.34
2018-09-04T16:13:32.271Z,59.91
2018-09-04T16:16:01.561Z,59.44
2018-09-04T16:18:30.890Z,59.10
2018-09-04T16:21:00.085Z,59.10
2018-09-04T16:23:29.425Z,58.63
2018-09-04T16:25:58.735Z,58.83
2018-09-04T16:28:27.932Z,58.26
2018-09-04T16:30:57.190Z,57.82
2018-09-04T16:33:26.403Z,57.74
2018-09-04T16:35:55.227Z,57.36
2018-09-04T16:38:24.434Z,57.45
2018-09-04T16:40:53.711Z,57.28
2018-09-04T16:43:23.339Z,56.68
2018-09-04T16:45:52.429Z,56.75
2018-09-04T16:48:22.425Z,56.28
2018-09-04T16:50:51.615Z,56.19
2018-09-04T16:53:21.196Z,56.07
2018-09-04T16:55:50.602Z,55.92
2018-09-04T16:58:19.749Z,55.33
2018-09-04T17:00:48.997Z,55.50
2018-09-04T17:03:18.045Z,55.09
2018-09-04T17:05:47.493Z,55.50
2018-09-04T17:08:16.544Z,55.31
2018-09-04T17:10:45.626Z,55.37
2018-09-04T17:13:14.630Z,55.38
2018-09-04T17:15:44.091Z,54.86
2018-09-04T17:18:13.038Z,55.33
2018-09-04T17:20:42.064Z,55.46
2018-09-04T17:23:10.865Z,55.39
2018-09-04T17:25:39.733Z,54.83
2018-09-04T17:28:09.503Z,54.69
2018-09-04T17:30:38.611Z,54.60
2018-09-04T17:33:07.948Z,55.07
2018-09-04T17:35:38.006Z,54.69
2018-09-04T17:38:07.490Z,54.99
2018-09-04T17:40:36.470Z,55.04
2018-09-04T17:43:05.838Z,54.69
2018-09-04T17:45:34.881Z,54.67
2018-09-04T17:48:04.085Z,55.02
2018-09-04T17:50:32.971Z,54.35
2018-09-04T17:53:04.077Z,54.47
2018-09-04T17:55:33.001Z,54.95
2018-09-04T17:58:02.092Z,54.75
2018-09-04T18:00:31.282Z,54.52
2018-09-04T18:03:01.102Z,54.55
2018-09-04T18:05:30.102Z,54.59
2018-09-04T18:07:59.215Z,55.16
2018-09-04T18:10:28.161Z,54.83
2018-09-04T18:12:57.056Z,55.06
2018-09-04T18:15:26.241Z,54.64
2018-09-04T18:17:55.292Z,55.25
2018-09-04T18:20:24.438Z,54.70
2018-09-04T18:22:53.708Z,55.49
2018-09-04T18:25:22.936Z,55.07
2018-09-04T18:27:52.161Z,55.50
2018-09-04T18:30:21.418Z,55.29
2018-09-04T18:32:50.924Z,55.61
2018-09-04T18:35:20.309Z,55.48
2018-09-04T18:37:49.303Z,54.92
2018-09-04T18:40:19.063Z,55.04
2018-09-04T18:42:48.459Z,55.06
2018-09-04T18:45:28.459Z,54.94
2018-09-04T18:47:57.784Z,55.11
2018-09-04T18:50:26.994Z,55.01
2018-09-04T18:52:56.377Z,55.31
2018-09-04T18:55:25.780Z,55.36
2018-09-04T18:57:55.048Z,55.01
2018-09-04T19:00:24.818Z,54.76
2018-09-04T19:02:54.122Z,54.46
2018-09-04T19:05:23.463Z,54.85
2018-09-04T19:07:52.801Z,54.50
2018-09-04T19:10:22.130Z,54.89
2018-09-04T19:12:51.530Z,54.46
2018-09-04T19:15:20.822Z,54.91
2018-09-04T19:17:50.102Z,54.92
2018-09-04T19:20:19.556Z,54.92
2018-09-04T19:22:49.022Z,54.59
2018-09-04T19:25:18.326Z,55.22
2018-09-04T19:27:47.649Z,54.70
2018-09-04T19:30:17.311Z,55.07
2018-09-04T19:32:46.694Z,55.24
2018-09-04T19:35:16.327Z,55.31
2018-09-04T19:37:45.760Z,55.16
2018-09-04T19:40:14.976Z,55.79
2018-09-04T19:42:44.483Z,55.49
2018-09-04T19:45:13.965Z,56.03
2018-09-04T19:47:43.274Z,55.69
2018-09-04T19:50:13.345Z,56.45
2018-09-04T19:52:42.735Z,56.33
2018-09-04T19:55:12.812Z,56.62
2018-09-04T19:57:42.251Z,56.21
2018-09-04T20:00:12.148Z,56.86
2018-09-04T20:02:41.508Z,56.35
2018-09-04T20:05:10.917Z,56.52
2018-09-04T20:07:40.402Z,56.95
2018-09-04T20:10:09.743Z,56.65
2018-09-04T20:12:39.210Z,57.35
2018-09-04T20:15:08.396Z,57.57
2018-09-04T20:17:37.641Z,57.59
2018-09-04T20:20:06.889Z,57.36
2018-09-04T20:22:35.857Z,58.21
2018-09-04T20:25:04.970Z,58.53
2018-09-04T20:27:34.352Z,58.75
2018-09-04T20:30:03.670Z,58.45
2018-09-04T20:32:32.964Z,58.59
2018-09-04T20:35:02.330Z,58.79
2018-09-04T20:37:31.672Z,58.96
2018-09-04T20:40:01.001Z,58.42
2018-09-04T20:42:30.331Z,58.44
2018-09-04T20:44:59.444Z,58.37
2018-09-04T20:47:28.599Z,59.15
2018-09-04T20:49:57.842Z,58.83
2018-09-04T20:52:27.138Z,58.92
2018-09-04T20:54:56.446Z,59.62
2018-09-04T20:57:25.996Z,59.56
2018-09-04T21:00:08.464Z,59.82
2018-09-04T21:02:48.506Z,60.07
2018-09-04T21:05:29.255Z,60.11
2018-09-04T21:08:15.482Z,59.78
2018-09-04T21:10:45.374Z,60.10
2018-09-04T21:13:15.058Z,60.58
2018-09-04T21:15:44.381Z,60.45
2018-09-04T21:18:13.375Z,60.60
2018-09-04T21:20:42.629Z,60.39
2018-09-04T21:23:11.977Z,60.83
2018-09-04T21:25:41.164Z,60.59
2018-09-04T21:28:10.553Z,60.59
2018-09-04T21:30:39.841Z,60.86
2018-09-04T21:33:09.079Z,60.88
2018-09-04T21:35:38.397Z,60.90
2018-09-04T21:38:07.811Z,61.06
2018-09-04T21:40:37.116Z,61.17
2018-09-04T21:43:06.699Z,61.70
2018-09-04T21:45:36.042Z,61.92
2018-09-04T21:48:05.236Z,62.55
2018-09-04T21:50:34.467Z,62.84
2018-09-04T21:53:03.761Z,63.04
2018-09-04T21:55:32.916Z,63.39
2018-09-04T21:58:02.115Z,63.21
2018-09-04T22:00:31.683Z,63.07
2018-09-04T22:03:00.694Z,63.59
2018-09-04T22:05:29.874Z,63.33
2018-09-04T22:07:59.173Z,63.77
2018-09-04T22:10:28.498Z,63.52
2018-09-04T22:12:57.773Z,63.88
2018-09-04T22:15:26.912Z,63.91
2018-09-04T22:17:56.194Z,63.70
2018-09-04T22:20:25.547Z,63.47
2018-09-04T22:22:54.650Z,64.14
2018-09-04T22:25:23.845Z,64.16
2018-09-04T22:27:53.015Z,63.79
2018-09-04T22:30:24.982Z,64.48
2018-09-04T22:32:54.200Z,64.66
2018-09-04T22:35:23.500Z,64.79
2018-09-04T22:37:52.698Z,65.03
2018-09-04T22:40:22.036Z,65.09
2018-09-04T22:42:51.462Z,65.21
2018-09-04T22:45:21.149Z,65.66
2018-09-04T22:47:50.447Z,65.76
2018-09-04T22:50:24.788Z,65.72
2018-09-04T22:52:53.963Z,65.71
2018-09-04T22:55:23.190Z,65.95
2018-09-04T22:57:52.425Z,66.15
2018-09-04T23:00:22.064Z,65.69
2018-09-04T23:02:51.670Z,66.02
2018-09-04T23:05:21.179Z,66.26
2018-09-04T23:07:50.473Z,66.26
2018-09-04T23:10:19.739Z,65.93
2018-09-04T23:12:48.974Z,66.13
2018-09-04T23:15:18.198Z,66.42
2018-09-04T23:17:47.709Z,66.30
2018-09-04T23:20:17.012Z,66.46
2018-09-04T23:22:46.453Z,66.48
2018-09-04T23:25:15.850Z,66.75
2018-09-04T23:27:45.316Z,66.78
2018-09-04T23:30:14.480Z,66.49
2018-09-04T23:32:45.444Z,66.80
2018-09-04T23:35:14.778Z,66.88
2018-09-04T23:37:43.837Z,66.45
2018-09-04T23:40:13.226Z,66.96
2018-09-04T23:42:42.646Z,67.15
2018-09-04T23:45:14.551Z,66.92
2018-09-04T23:47:44.506Z,66.92
2018-09-04T23:50:13.808Z,66.93
2018-09-04T23:52:43.270Z,67.21
2018-09-04T23:55:12.652Z,67.48
2018-09-04T23:57:42.039Z,67.55
